Terminal Aerodrome Forecast
Issued by NWS Boston, MA

Current Version | Previous Version | Text Only | Print | Product List | Glossary On
Versions: 1 2 3 4 5 6 7 8 9 10 11 12 13 14 15 16 17 18 19 20 21 22 23 24 25 26
000
FTUS41 KBOX 270540
TAFPVD
TAF
KPVD 270540Z 2706/2806 04004KT 2SM -DZ BR OVC003
      TEMPO 2706/2710 1/2SM FG OVC002
     FM271000 00000KT 3/4SM -DZ BR OVC003
     FM271200 00000KT 3SM BR OVC008
     FM271500 00000KT P6SM OVC010
     FM272300 18008KT P6SM BKN045
     FM280400 17006KT 3SM BR OVC010=

USA.gov is the U.S. government's official web portal to all federal, state and local government web resources and services.